sensor_id;sensor_type;location;lat;lon;timestamp;P1;durP1;ratioP1;P2;durP2;ratioP2
33455;SDS011;19791;51.916;8.412;2023-07-13T00:02:21;5.60;;;2.50;;
33455;SDS011;19791;51.916;8.412;2023-07-13T00:04:47;9.70;;;2.92;;
33455;SDS011;19791;51.916;8.412;2023-07-13T00:07:13;7.10;;;3.40;;
33455;SDS011;19791;51.916;8.412;2023-07-13T00:09:40;12.85;;;3.15;;
33455;SDS011;19791;51.916;8.412;2023-07-13T00:12:20;10.70;;;3.28;;
33455;SDS011;19791;51.916;8.412;2023-07-13T00:14:52;6.47;;;3.13;;
33455;SDS011;19791;51.916;8.412;2023-07-13T00:17:18;8.35;;;3.13;;
33455;SDS011;19791;51.916;8.412;2023-07-13T00:19:44;4.57;;;2.63;;
33455;SDS011;19791;51.916;8.412;2023-07-13T00:22:10;9.55;;;3.30;;
33455;SDS011;19791;51.916;8.412;2023-07-13T00:24:35;6.10;;;3.10;;
33455;SDS011;19791;51.916;8.412;2023-07-13T00:27:07;6.07;;;2.72;;
33455;SDS011;19791;51.916;8.412;2023-07-13T00:29:34;10.48;;;3.58;;
33455;SDS011;19791;51.916;8.412;2023-07-13T00:32:01;6.38;;;3.30;;
33455;SDS011;19791;51.916;8.412;2023-07-13T00:34:31;7.07;;;2.53;;
33455;SDS011;19791;51.916;8.412;2023-07-13T00:36:56;9.15;;;3.30;;
33455;SDS011;19791;51.916;8.412;2023-07-13T00:39:22;5.90;;;3.45;;
33455;SDS011;19791;51.916;8.412;2023-07-13T00:41:49;11.52;;;3.22;;
33455;SDS011;19791;51.916;8.412;2023-07-13T00:44:15;6.55;;;2.45;;
33455;SDS011;19791;51.916;8.412;2023-07-13T00:46:42;7.70;;;2.75;;
33455;SDS011;19791;51.916;8.412;2023-07-13T00:49:09;6.20;;;2.40;;
33455;SDS011;19791;51.916;8.412;2023-07-13T00:54:19;7.35;;;2.88;;
33455;SDS011;19791;51.916;8.412;2023-07-13T00:56:52;6.72;;;2.63;;
33455;SDS011;19791;51.916;8.412;2023-07-13T00:59:20;10.50;;;3.78;;
33455;SDS011;19791;51.916;8.412;2023-07-13T01:01:47;7.93;;;3.03;;
33455;SDS011;19791;51.916;8.412;2023-07-13T01:04:14;9.88;;;3.85;;
33455;SDS011;19791;51.916;8.412;2023-07-13T01:06:39;5.43;;;3.25;;
33455;SDS011;19791;51.916;8.412;2023-07-13T01:09:09;3.53;;;2.78;;
33455;SDS011;19791;51.916;8.412;2023-07-13T01:11:35;6.90;;;3.03;;
33455;SDS011;19791;51.916;8.412;2023-07-13T01:14:01;8.45;;;2.88;;
33455;SDS011;19791;51.916;8.412;2023-07-13T01:16:29;8.40;;;2.90;;
33455;SDS011;19791;51.916;8.412;2023-07-13T01:18:56;3.85;;;2.33;;
33455;SDS011;19791;51.916;8.412;2023-07-13T01:21:23;2.97;;;2.58;;
33455;SDS011;19791;51.916;8.412;2023-07-13T01:23:50;9.88;;;3.13;;
33455;SDS011;19791;51.916;8.412;2023-07-13T01:26:16;7.80;;;2.50;;
33455;SDS011;19791;51.916;8.412;2023-07-13T01:28:42;6.95;;;3.30;;
33455;SDS011;19791;51.916;8.412;2023-07-13T01:31:08;5.75;;;3.53;;
33455;SDS011;19791;51.916;8.412;2023-07-13T01:33:35;9.13;;;2.50;;
33455;SDS011;19791;51.916;8.412;2023-07-13T01:36:03;8.70;;;3.03;;
33455;SDS011;19791;51.916;8.412;2023-07-13T01:38:29;8.48;;;2.72;;
33455;SDS011;19791;51.916;8.412;2023-07-13T01:40:54;7.25;;;2.75;;
33455;SDS011;19791;51.916;8.412;2023-07-13T01:43:20;8.30;;;3.38;;
33455;SDS011;19791;51.916;8.412;2023-07-13T01:45:46;6.00;;;3.22;;
33455;SDS011;19791;51.916;8.412;2023-07-13T01:48:12;8.10;;;2.40;;
33455;SDS011;19791;51.916;8.412;2023-07-13T01:50:38;7.32;;;2.22;;
33455;SDS011;19791;51.916;8.412;2023-07-13T01:53:04;13.13;;;3.08;;
33455;SDS011;19791;51.916;8.412;2023-07-13T01:55:31;4.28;;;2.58;;
33455;SDS011;19791;51.916;8.412;2023-07-13T01:57:57;5.57;;;2.58;;
33455;SDS011;19791;51.916;8.412;2023-07-13T02:00:23;11.90;;;2.80;;
33455;SDS011;19791;51.916;8.412;2023-07-13T02:02:49;8.85;;;3.60;;
33455;SDS011;19791;51.916;8.412;2023-07-13T02:05:16;10.57;;;2.45;;
33455;SDS011;19791;51.916;8.412;2023-07-13T02:07:42;9.20;;;2.60;;
33455;SDS011;19791;51.916;8.412;2023-07-13T02:10:08;7.18;;;2.53;;
33455;SDS011;19791;51.916;8.412;2023-07-13T02:12:35;5.65;;;2.53;;
33455;SDS011;19791;51.916;8.412;2023-07-13T02:15:01;7.40;;;3.28;;
33455;SDS011;19791;51.916;8.412;2023-07-13T02:17:27;7.40;;;3.00;;
33455;SDS011;19791;51.916;8.412;2023-07-13T02:19:53;5.53;;;2.60;;
33455;SDS011;19791;51.916;8.412;2023-07-13T02:22:19;7.97;;;3.42;;
33455;SDS011;19791;51.916;8.412;2023-07-13T02:24:45;7.77;;;2.50;;
33455;SDS011;19791;51.916;8.412;2023-07-13T02:27:11;4.55;;;2.95;;
33455;SDS011;19791;51.916;8.412;2023-07-13T02:29:37;8.55;;;3.25;;
33455;SDS011;19791;51.916;8.412;2023-07-13T02:32:02;7.37;;;2.63;;
33455;SDS011;19791;51.916;8.412;2023-07-13T02:34:28;7.88;;;2.53;;
33455;SDS011;19791;51.916;8.412;2023-07-13T02:36:54;11.27;;;3.13;;
33455;SDS011;19791;51.916;8.412;2023-07-13T02:39:20;11.30;;;3.78;;
33455;SDS011;19791;51.916;8.412;2023-07-13T02:41:45;5.03;;;2.67;;
33455;SDS011;19791;51.916;8.412;2023-07-13T02:44:12;9.02;;;3.30;;
33455;SDS011;19791;51.916;8.412;2023-07-13T02:46:38;9.50;;;3.28;;
33455;SDS011;19791;51.916;8.412;2023-07-13T02:49:04;8.67;;;2.70;;
33455;SDS011;19791;51.916;8.412;2023-07-13T02:51:31;10.02;;;3.30;;
33455;SDS011;19791;51.916;8.412;2023-07-13T02:53:59;7.05;;;3.25;;
33455;SDS011;19791;51.916;8.412;2023-07-13T02:56:29;8.93;;;4.50;;
33455;SDS011;19791;51.916;8.412;2023-07-13T02:58:56;12.68;;;4.15;;
33455;SDS011;19791;51.916;8.412;2023-07-13T03:01:23;8.20;;;3.30;;
33455;SDS011;19791;51.916;8.412;2023-07-13T03:03:49;8.02;;;4.10;;
33455;SDS011;19791;51.916;8.412;2023-07-13T03:06:16;6.03;;;3.90;;
33455;SDS011;19791;51.916;8.412;2023-07-13T03:08:43;10.40;;;4.13;;
33455;SDS011;19791;51.916;8.412;2023-07-13T03:11:10;16.40;;;4.60;;
33455;SDS011;19791;51.916;8.412;2023-07-13T03:13:41;7.97;;;4.67;;
33455;SDS011;19791;51.916;8.412;2023-07-13T03:16:07;8.33;;;4.97;;
33455;SDS011;19791;51.916;8.412;2023-07-13T03:18:35;7.90;;;4.27;;
33455;SDS011;19791;51.916;8.412;2023-07-13T03:21:01;9.65;;;4.35;;
33455;SDS011;19791;51.916;8.412;2023-07-13T03:23:27;12.20;;;5.43;;
33455;SDS011;19791;51.916;8.412;2023-07-13T03:26:07;9.13;;;5.03;;
33455;SDS011;19791;51.916;8.412;2023-07-13T03:28:35;9.97;;;4.30;;
33455;SDS011;19791;51.916;8.412;2023-07-13T03:31:08;7.72;;;4.93;;
33455;SDS011;19791;51.916;8.412;2023-07-13T03:33:36;8.77;;;5.07;;
33455;SDS011;19791;51.916;8.412;2023-07-13T03:36:03;8.93;;;4.53;;
33455;SDS011;19791;51.916;8.412;2023-07-13T03:38:30;6.53;;;4.37;;
33455;SDS011;19791;51.916;8.412;2023-07-13T03:40:57;9.52;;;4.20;;
33455;SDS011;19791;51.916;8.412;2023-07-13T03:43:22;8.43;;;4.07;;
33455;SDS011;19791;51.916;8.412;2023-07-13T03:45:48;9.70;;;4.87;;
33455;SDS011;19791;51.916;8.412;2023-07-13T03:48:14;9.60;;;4.70;;
33455;SDS011;19791;51.916;8.412;2023-07-13T03:50:40;8.35;;;3.90;;
33455;SDS011;19791;51.916;8.412;2023-07-13T03:53:05;12.27;;;4.45;;
33455;SDS011;19791;51.916;8.412;2023-07-13T03:55:31;7.82;;;4.65;;
33455;SDS011;19791;51.916;8.412;2023-07-13T03:57:58;11.30;;;3.67;;
33455;SDS011;19791;51.916;8.412;2023-07-13T04:00:42;8.60;;;3.80;;
33455;SDS011;19791;51.916;8.412;2023-07-13T04:03:08;7.43;;;4.22;;
33455;SDS011;19791;51.916;8.412;2023-07-13T04:05:34;4.85;;;2.85;;
33455;SDS011;19791;51.916;8.412;2023-07-13T04:08:00;9.37;;;3.63;;
33455;SDS011;19791;51.916;8.412;2023-07-13T04:10:26;6.07;;;3.15;;
33455;SDS011;19791;51.916;8.412;2023-07-13T04:12:51;5.65;;;2.25;;
33455;SDS011;19791;51.916;8.412;2023-07-13T04:15:17;9.67;;;2.60;;
33455;SDS011;19791;51.916;8.412;2023-07-13T04:17:42;9.10;;;2.67;;
33455;SDS011;19791;51.916;8.412;2023-07-13T04:20:08;4.77;;;2.63;;
33455;SDS011;19791;51.916;8.412;2023-07-13T04:22:34;8.23;;;2.70;;
33455;SDS011;19791;51.916;8.412;2023-07-13T04:25:00;5.20;;;2.00;;
33455;SDS011;19791;51.916;8.412;2023-07-13T04:27:25;8.60;;;2.33;;
33455;SDS011;19791;51.916;8.412;2023-07-13T04:29:51;8.57;;;2.67;;
33455;SDS011;19791;51.916;8.412;2023-07-13T04:32:16;13.53;;;2.67;;
33455;SDS011;19791;51.916;8.412;2023-07-13T04:34:42;7.07;;;3.25;;
33455;SDS011;19791;51.916;8.412;2023-07-13T04:37:08;8.70;;;3.53;;
33455;SDS011;19791;51.916;8.412;2023-07-13T04:39:33;7.07;;;2.08;;
33455;SDS011;19791;51.916;8.412;2023-07-13T04:41:59;5.03;;;2.47;;
33455;SDS011;19791;51.916;8.412;2023-07-13T04:44:24;13.60;;;3.45;;
33455;SDS011;19791;51.916;8.412;2023-07-13T04:46:50;9.07;;;3.00;;
33455;SDS011;19791;51.916;8.412;2023-07-13T04:49:16;5.53;;;2.37;;
33455;SDS011;19791;51.916;8.412;2023-07-13T04:51:41;5.57;;;2.23;;
33455;SDS011;19791;51.916;8.412;2023-07-13T04:54:07;4.50;;;2.35;;
33455;SDS011;19791;51.916;8.412;2023-07-13T04:56:33;4.70;;;2.05;;
33455;SDS011;19791;51.916;8.412;2023-07-13T04:58:58;5.03;;;1.70;;
33455;SDS011;19791;51.916;8.412;2023-07-13T05:01:24;5.50;;;2.20;;
33455;SDS011;19791;51.916;8.412;2023-07-13T05:03:50;7.65;;;2.00;;
33455;SDS011;19791;51.916;8.412;2023-07-13T05:06:15;8.57;;;2.10;;
33455;SDS011;19791;51.916;8.412;2023-07-13T05:08:41;7.90;;;2.47;;
33455;SDS011;19791;51.916;8.412;2023-07-13T05:11:07;6.20;;;1.90;;
33455;SDS011;19791;51.916;8.412;2023-07-13T05:13:32;5.28;;;2.45;;
33455;SDS011;19791;51.916;8.412;2023-07-13T05:15:59;6.55;;;1.88;;
33455;SDS011;19791;51.916;8.412;2023-07-13T05:18:29;11.18;;;2.55;;
33455;SDS011;19791;51.916;8.412;2023-07-13T05:20:59;10.77;;;2.20;;
33455;SDS011;19791;51.916;8.412;2023-07-13T05:23:26;6.65;;;1.80;;
33455;SDS011;19791;51.916;8.412;2023-07-13T05:25:52;3.17;;;1.70;;
33455;SDS011;19791;51.916;8.412;2023-07-13T05:28:18;7.15;;;2.47;;
33455;SDS011;19791;51.916;8.412;2023-07-13T05:30:47;11.52;;;2.75;;
33455;SDS011;19791;51.916;8.412;2023-07-13T05:33:14;7.78;;;2.58;;
33455;SDS011;19791;51.916;8.412;2023-07-13T05:35:39;7.63;;;1.95;;
33455;SDS011;19791;51.916;8.412;2023-07-13T05:38:05;5.15;;;2.30;;
33455;SDS011;19791;51.916;8.412;2023-07-13T05:40:31;6.70;;;2.25;;
33455;SDS011;19791;51.916;8.412;2023-07-13T05:42:57;7.22;;;2.33;;
33455;SDS011;19791;51.916;8.412;2023-07-13T05:45:22;10.70;;;2.17;;
33455;SDS011;19791;51.916;8.412;2023-07-13T05:47:48;6.43;;;2.03;;
33455;SDS011;19791;51.916;8.412;2023-07-13T05:50:14;5.45;;;2.13;;
33455;SDS011;19791;51.916;8.412;2023-07-13T05:52:40;8.90;;;2.05;;
33455;SDS011;19791;51.916;8.412;2023-07-13T05:55:06;12.77;;;2.42;;
33455;SDS011;19791;51.916;8.412;2023-07-13T05:57:32;10.95;;;2.28;;
33455;SDS011;19791;51.916;8.412;2023-07-13T05:59:57;9.73;;;2.30;;
33455;SDS011;19791;51.916;8.412;2023-07-13T06:02:23;9.32;;;2.50;;
33455;SDS011;19791;51.916;8.412;2023-07-13T06:04:48;7.30;;;2.30;;
33455;SDS011;19791;51.916;8.412;2023-07-13T06:07:14;7.97;;;2.10;;
33455;SDS011;19791;51.916;8.412;2023-07-13T06:09:40;8.13;;;2.92;;
33455;SDS011;19791;51.916;8.412;2023-07-13T06:12:06;7.53;;;1.80;;
33455;SDS011;19791;51.916;8.412;2023-07-13T06:14:32;6.82;;;2.28;;
33455;SDS011;19791;51.916;8.412;2023-07-13T06:16:57;8.85;;;2.00;;
33455;SDS011;19791;51.916;8.412;2023-07-13T06:19:23;6.55;;;2.08;;
33455;SDS011;19791;51.916;8.412;2023-07-13T06:21:49;5.53;;;2.28;;
33455;SDS011;19791;51.916;8.412;2023-07-13T06:24:14;7.75;;;2.30;;
33455;SDS011;19791;51.916;8.412;2023-07-13T06:26:40;7.25;;;2.90;;
33455;SDS011;19791;51.916;8.412;2023-07-13T06:29:06;7.97;;;3.10;;
33455;SDS011;19791;51.916;8.412;2023-07-13T06:31:31;3.15;;;1.92;;
33455;SDS011;19791;51.916;8.412;2023-07-13T06:33:57;11.70;;;2.78;;
33455;SDS011;19791;51.916;8.412;2023-07-13T06:36:23;11.82;;;2.53;;
33455;SDS011;19791;51.916;8.412;2023-07-13T06:38:48;10.73;;;2.47;;
33455;SDS011;19791;51.916;8.412;2023-07-13T06:41:14;8.48;;;2.63;;
33455;SDS011;19791;51.916;8.412;2023-07-13T06:43:40;8.30;;;2.92;;
33455;SDS011;19791;51.916;8.412;2023-07-13T06:46:05;7.78;;;2.58;;
33455;SDS011;19791;51.916;8.412;2023-07-13T06:48:31;9.63;;;2.92;;
33455;SDS011;19791;51.916;8.412;2023-07-13T06:50:57;6.57;;;2.85;;
33455;SDS011;19791;51.916;8.412;2023-07-13T06:53:23;11.02;;;2.60;;
33455;SDS011;19791;51.916;8.412;2023-07-13T06:55:50;15.35;;;3.28;;
33455;SDS011;19791;51.916;8.412;2023-07-13T06:58:16;14.82;;;2.72;;
33455;SDS011;19791;51.916;8.412;2023-07-13T07:00:43;6.82;;;2.72;;
33455;SDS011;19791;51.916;8.412;2023-07-13T07:03:09;8.43;;;2.58;;
33455;SDS011;19791;51.916;8.412;2023-07-13T07:05:34;16.42;;;7.53;;
33455;SDS011;19791;51.916;8.412;2023-07-13T07:08:00;11.65;;;4.70;;
33455;SDS011;19791;51.916;8.412;2023-07-13T07:10:26;7.93;;;2.90;;
33455;SDS011;19791;51.916;8.412;2023-07-13T07:12:56;10.63;;;3.22;;
33455;SDS011;19791;51.916;8.412;2023-07-13T07:15:22;15.70;;;3.50;;
33455;SDS011;19791;51.916;8.412;2023-07-13T07:17:48;7.68;;;2.72;;
33455;SDS011;19791;51.916;8.412;2023-07-13T07:20:14;11.88;;;3.88;;
33455;SDS011;19791;51.916;8.412;2023-07-13T07:22:39;11.40;;;3.17;;
33455;SDS011;19791;51.916;8.412;2023-07-13T07:25:05;12.40;;;4.32;;
33455;SDS011;19791;51.916;8.412;2023-07-13T07:27:31;11.10;;;3.35;;
33455;SDS011;19791;51.916;8.412;2023-07-13T07:29:57;10.48;;;3.15;;
33455;SDS011;19791;51.916;8.412;2023-07-13T07:32:23;7.65;;;3.38;;
33455;SDS011;19791;51.916;8.412;2023-07-13T07:34:49;10.38;;;3.85;;
33455;SDS011;19791;51.916;8.412;2023-07-13T07:37:14;10.02;;;3.40;;
33455;SDS011;19791;51.916;8.412;2023-07-13T07:39:40;9.60;;;3.97;;
33455;SDS011;19791;51.916;8.412;2023-07-13T07:42:07;6.72;;;3.42;;
33455;SDS011;19791;51.916;8.412;2023-07-13T07:44:33;12.32;;;3.67;;
33455;SDS011;19791;51.916;8.412;2023-07-13T07:46:59;6.22;;;3.50;;
33455;SDS011;19791;51.916;8.412;2023-07-13T07:49:25;7.63;;;3.70;;
33455;SDS011;19791;51.916;8.412;2023-07-13T07:51:51;12.02;;;3.80;;
33455;SDS011;19791;51.916;8.412;2023-07-13T07:54:17;12.55;;;4.38;;
33455;SDS011;19791;51.916;8.412;2023-07-13T07:56:43;9.05;;;5.78;;
33455;SDS011;19791;51.916;8.412;2023-07-13T07:59:08;10.82;;;4.20;;
33455;SDS011;19791;51.916;8.412;2023-07-13T08:01:34;11.52;;;4.15;;
33455;SDS011;19791;51.916;8.412;2023-07-13T08:04:00;6.60;;;3.35;;
33455;SDS011;19791;51.916;8.412;2023-07-13T08:06:26;7.20;;;3.67;;
33455;SDS011;19791;51.916;8.412;2023-07-13T08:08:52;8.68;;;3.38;;
33455;SDS011;19791;51.916;8.412;2023-07-13T08:11:20;8.98;;;3.25;;
33455;SDS011;19791;51.916;8.412;2023-07-13T08:13:47;14.73;;;3.55;;
33455;SDS011;19791;51.916;8.412;2023-07-13T08:16:12;8.57;;;3.25;;
33455;SDS011;19791;51.916;8.412;2023-07-13T08:18:38;9.77;;;3.28;;
33455;SDS011;19791;51.916;8.412;2023-07-13T08:21:04;8.60;;;3.03;;
33455;SDS011;19791;51.916;8.412;2023-07-13T08:23:31;8.48;;;2.60;;
33455;SDS011;19791;51.916;8.412;2023-07-13T08:25:57;11.77;;;3.42;;
33455;SDS011;19791;51.916;8.412;2023-07-13T08:28:23;12.23;;;3.35;;
33455;SDS011;19791;51.916;8.412;2023-07-13T08:30:49;3.58;;;1.80;;
33455;SDS011;19791;51.916;8.412;2023-07-13T08:33:16;7.32;;;3.05;;
33455;SDS011;19791;51.916;8.412;2023-07-13T08:35:46;9.27;;;2.28;;
33455;SDS011;19791;51.916;8.412;2023-07-13T08:38:12;7.57;;;3.53;;
33455;SDS011;19791;51.916;8.412;2023-07-13T08:40:39;10.05;;;2.90;;
33455;SDS011;19791;51.916;8.412;2023-07-13T08:43:06;7.05;;;2.53;;
33455;SDS011;19791;51.916;8.412;2023-07-13T08:45:52;11.98;;;3.00;;
33455;SDS011;19791;51.916;8.412;2023-07-13T08:48:26;8.15;;;2.78;;
33455;SDS011;19791;51.916;8.412;2023-07-13T08:51:00;5.90;;;2.20;;
33455;SDS011;19791;51.916;8.412;2023-07-13T08:53:58;6.05;;;2.25;;
33455;SDS011;19791;51.916;8.412;2023-07-13T08:56:28;6.45;;;2.25;;
33455;SDS011;19791;51.916;8.412;2023-07-13T08:58:58;8.93;;;1.92;;
33455;SDS011;19791;51.916;8.412;2023-07-13T09:01:35;6.22;;;2.80;;
33455;SDS011;19791;51.916;8.412;2023-07-13T09:12:14;5.15;;;1.90;;
33455;SDS011;19791;51.916;8.412;2023-07-13T09:14:51;5.03;;;2.08;;
33455;SDS011;19791;51.916;8.412;2023-07-13T09:17:21;5.85;;;2.65;;
33455;SDS011;19791;51.916;8.412;2023-07-13T09:19:59;7.30;;;2.33;;
33455;SDS011;19791;51.916;8.412;2023-07-13T09:22:35;6.18;;;2.45;;
33455;SDS011;19791;51.916;8.412;2023-07-13T09:25:13;10.45;;;2.85;;
33455;SDS011;19791;51.916;8.412;2023-07-13T09:27:53;4.72;;;1.90;;
33455;SDS011;19791;51.916;8.412;2023-07-13T09:30:30;3.10;;;1.98;;
33455;SDS011;19791;51.916;8.412;2023-07-13T09:33:18;5.45;;;2.85;;
33455;SDS011;19791;51.916;8.412;2023-07-13T09:35:44;6.30;;;4.10;;
33455;SDS011;19791;51.916;8.412;2023-07-13T09:38:11;7.88;;;3.22;;
33455;SDS011;19791;51.916;8.412;2023-07-13T09:43:17;27.77;;;4.47;;
33455;SDS011;19791;51.916;8.412;2023-07-13T09:45:45;5.93;;;3.00;;
33455;SDS011;19791;51.916;8.412;2023-07-13T09:48:14;6.07;;;3.60;;
33455;SDS011;19791;51.916;8.412;2023-07-13T09:50:41;5.07;;;3.30;;
33455;SDS011;19791;51.916;8.412;2023-07-13T09:53:14;6.30;;;2.90;;
33455;SDS011;19791;51.916;8.412;2023-07-13T09:55:43;10.25;;;3.95;;
33455;SDS011;19791;51.916;8.412;2023-07-13T09:58:13;6.50;;;2.63;;
33455;SDS011;19791;51.916;8.412;2023-07-13T10:00:58;3.95;;;2.85;;
33455;SDS011;19791;51.916;8.412;2023-07-13T10:03:29;7.55;;;3.22;;
33455;SDS011;19791;51.916;8.412;2023-07-13T10:08:37;7.05;;;2.72;;
33455;SDS011;19791;51.916;8.412;2023-07-13T10:11:10;5.22;;;2.55;;
33455;SDS011;19791;51.916;8.412;2023-07-13T10:13:36;5.78;;;2.20;;
33455;SDS011;19791;51.916;8.412;2023-07-13T10:16:07;3.38;;;2.33;;
33455;SDS011;19791;51.916;8.412;2023-07-13T10:18:44;4.88;;;2.55;;
33455;SDS011;19791;51.916;8.412;2023-07-13T10:21:17;5.65;;;2.90;;
33455;SDS011;19791;51.916;8.412;2023-07-13T10:23:53;5.65;;;2.33;;
33455;SDS011;19791;51.916;8.412;2023-07-13T10:26:25;11.10;;;3.10;;
33455;SDS011;19791;51.916;8.412;2023-07-13T10:28:56;7.22;;;2.95;;
33455;SDS011;19791;51.916;8.412;2023-07-13T10:31:24;7.10;;;3.03;;
33455;SDS011;19791;51.916;8.412;2023-07-13T10:33:50;9.90;;;5.18;;
33455;SDS011;19791;51.916;8.412;2023-07-13T10:38:51;5.22;;;2.47;;
33455;SDS011;19791;51.916;8.412;2023-07-13T10:41:18;7.78;;;3.40;;
33455;SDS011;19791;51.916;8.412;2023-07-13T10:43:50;6.38;;;3.13;;
33455;SDS011;19791;51.916;8.412;2023-07-13T10:46:18;4.30;;;2.20;;
33455;SDS011;19791;51.916;8.412;2023-07-13T10:48:46;5.95;;;3.05;;
33455;SDS011;19791;51.916;8.412;2023-07-13T10:51:17;6.15;;;2.35;;
33455;SDS011;19791;51.916;8.412;2023-07-13T10:53:46;5.60;;;2.20;;
33455;SDS011;19791;51.916;8.412;2023-07-13T10:58:47;5.72;;;2.40;;
33455;SDS011;19791;51.916;8.412;2023-07-13T11:01:46;4.00;;;2.08;;
33455;SDS011;19791;51.916;8.412;2023-07-13T11:04:44;5.70;;;2.10;;
33455;SDS011;19791;51.916;8.412;2023-07-13T11:07:23;10.40;;;4.38;;
33455;SDS011;19791;51.916;8.412;2023-07-13T11:09:50;6.10;;;2.13;;
33455;SDS011;19791;51.916;8.412;2023-07-13T11:22:53;5.18;;;2.08;;
33455;SDS011;19791;51.916;8.412;2023-07-13T11:25:33;8.50;;;2.30;;
33455;SDS011;19791;51.916;8.412;2023-07-13T11:36:05;6.72;;;4.13;;
33455;SDS011;19791;51.916;8.412;2023-07-13T11:38:41;12.93;;;4.75;;
33455;SDS011;19791;51.916;8.412;2023-07-13T11:44:20;5.55;;;2.25;;
33455;SDS011;19791;51.916;8.412;2023-07-13T11:46:49;5.22;;;2.28;;
33455;SDS011;19791;51.916;8.412;2023-07-13T11:49:17;8.75;;;3.78;;
33455;SDS011;19791;51.916;8.412;2023-07-13T11:51:45;2.38;;;1.85;;
33455;SDS011;19791;51.916;8.412;2023-07-13T11:54:18;5.10;;;2.35;;
33455;SDS011;19791;51.916;8.412;2023-07-13T11:56:46;5.05;;;2.45;;
33455;SDS011;19791;51.916;8.412;2023-07-13T11:59:14;3.53;;;2.35;;
33455;SDS011;19791;51.916;8.412;2023-07-13T12:01:45;6.50;;;2.65;;
33455;SDS011;19791;51.916;8.412;2023-07-13T12:09:39;5.95;;;2.80;;
33455;SDS011;19791;51.916;8.412;2023-07-13T12:12:09;7.70;;;3.75;;
33455;SDS011;19791;51.916;8.412;2023-07-13T12:14:39;8.65;;;6.03;;
33455;SDS011;19791;51.916;8.412;2023-07-13T12:17:20;10.88;;;5.75;;
33455;SDS011;19791;51.916;8.412;2023-07-13T12:19:48;8.85;;;3.55;;
33455;SDS011;19791;51.916;8.412;2023-07-13T12:22:16;10.50;;;5.03;;
33455;SDS011;19791;51.916;8.412;2023-07-13T12:24:44;8.73;;;4.65;;
33455;SDS011;19791;51.916;8.412;2023-07-13T12:30:36;7.07;;;3.90;;
33455;SDS011;19791;51.916;8.412;2023-07-13T12:33:08;6.72;;;4.25;;
33455;SDS011;19791;51.916;8.412;2023-07-13T12:35:40;5.35;;;3.25;;
33455;SDS011;19791;51.916;8.412;2023-07-13T12:38:15;6.18;;;5.15;;
33455;SDS011;19791;51.916;8.412;2023-07-13T12:40:41;7.00;;;3.17;;
33455;SDS011;19791;51.916;8.412;2023-07-13T12:43:14;4.47;;;3.08;;
33455;SDS011;19791;51.916;8.412;2023-07-13T12:45:54;6.47;;;3.85;;
33455;SDS011;19791;51.916;8.412;2023-07-13T12:48:24;6.03;;;2.92;;
33455;SDS011;19791;51.916;8.412;2023-07-13T12:50:50;4.57;;;3.00;;
33455;SDS011;19791;51.916;8.412;2023-07-13T12:53:20;5.57;;;2.83;;
33455;SDS011;19791;51.916;8.412;2023-07-13T12:55:55;6.05;;;3.60;;
33455;SDS011;19791;51.916;8.412;2023-07-13T12:58:26;4.63;;;2.47;;
33455;SDS011;19791;51.916;8.412;2023-07-13T13:01:01;2.80;;;2.13;;
33455;SDS011;19791;51.916;8.412;2023-07-13T13:03:33;5.63;;;2.38;;
33455;SDS011;19791;51.916;8.412;2023-07-13T13:08:43;3.85;;;1.90;;
33455;SDS011;19791;51.916;8.412;2023-07-13T13:11:15;3.45;;;2.20;;
33455;SDS011;19791;51.916;8.412;2023-07-13T13:13:41;5.65;;;2.88;;
33455;SDS011;19791;51.916;8.412;2023-07-13T13:16:11;3.30;;;2.28;;
33455;SDS011;19791;51.916;8.412;2023-07-13T13:19:15;3.08;;;2.15;;
33455;SDS011;19791;51.916;8.412;2023-07-13T13:21:47;6.32;;;2.75;;
33455;SDS011;19791;51.916;8.412;2023-07-13T13:24:16;5.30;;;2.60;;
33455;SDS011;19791;51.916;8.412;2023-07-13T13:26:45;2.92;;;2.20;;
33455;SDS011;19791;51.916;8.412;2023-07-13T13:29:15;3.58;;;2.88;;
33455;SDS011;19791;51.916;8.412;2023-07-13T13:31:42;5.25;;;3.00;;
33455;SDS011;19791;51.916;8.412;2023-07-13T13:34:12;6.13;;;2.80;;
33455;SDS011;19791;51.916;8.412;2023-07-13T13:36:41;2.03;;;1.60;;
33455;SDS011;19791;51.916;8.412;2023-07-13T13:39:29;6.90;;;2.55;;
33455;SDS011;19791;51.916;8.412;2023-07-13T13:41:56;4.72;;;2.42;;
33455;SDS011;19791;51.916;8.412;2023-07-13T13:44:22;5.45;;;3.22;;
33455;SDS011;19791;51.916;8.412;2023-07-13T13:46:50;6.18;;;4.88;;
33455;SDS011;19791;51.916;8.412;2023-07-13T13:49:24;9.30;;;3.40;;
33455;SDS011;19791;51.916;8.412;2023-07-13T13:51:51;9.82;;;2.75;;
33455;SDS011;19791;51.916;8.412;2023-07-13T13:54:18;9.23;;;2.42;;
33455;SDS011;19791;51.916;8.412;2023-07-13T13:56:46;6.00;;;2.80;;
33455;SDS011;19791;51.916;8.412;2023-07-13T13:59:13;7.53;;;2.05;;
33455;SDS011;19791;51.916;8.412;2023-07-13T14:01:39;5.38;;;2.60;;
33455;SDS011;19791;51.916;8.412;2023-07-13T14:04:08;5.47;;;2.53;;
33455;SDS011;19791;51.916;8.412;2023-07-13T14:06:39;5.55;;;2.55;;
33455;SDS011;19791;51.916;8.412;2023-07-13T14:09:08;9.23;;;2.92;;
33455;SDS011;19791;51.916;8.412;2023-07-13T14:11:36;7.10;;;2.88;;
33455;SDS011;19791;51.916;8.412;2023-07-13T14:14:02;7.00;;;3.17;;
33455;SDS011;19791;51.916;8.412;2023-07-13T15:14:33;10.80;;;4.95;;
33455;SDS011;19791;51.916;8.412;2023-07-13T15:16:58;11.48;;;5.53;;
33455;SDS011;19791;51.916;8.412;2023-07-13T15:19:25;8.30;;;5.25;;
33455;SDS011;19791;51.916;8.412;2023-07-13T15:21:51;14.55;;;5.45;;
33455;SDS011;19791;51.916;8.412;2023-07-13T15:24:19;11.73;;;4.90;;
33455;SDS011;19791;51.916;8.412;2023-07-13T15:26:46;11.02;;;4.47;;
33455;SDS011;19791;51.916;8.412;2023-07-13T15:29:17;7.37;;;4.53;;
33455;SDS011;19791;51.916;8.412;2023-07-13T15:31:42;6.68;;;5.10;;
33455;SDS011;19791;51.916;8.412;2023-07-13T15:34:12;7.93;;;4.35;;
33455;SDS011;19791;51.916;8.412;2023-07-13T15:36:40;6.17;;;4.30;;
33455;SDS011;19791;51.916;8.412;2023-07-13T15:39:06;6.57;;;4.05;;
33455;SDS011;19791;51.916;8.412;2023-07-13T15:41:32;8.85;;;4.40;;
33455;SDS011;19791;51.916;8.412;2023-07-13T15:43:59;8.27;;;5.03;;
33455;SDS011;19791;51.916;8.412;2023-07-13T15:46:30;7.05;;;3.95;;
33455;SDS011;19791;51.916;8.412;2023-07-13T15:48:57;9.80;;;4.85;;
33455;SDS011;19791;51.916;8.412;2023-07-13T15:51:23;8.60;;;4.72;;
33455;SDS011;19791;51.916;8.412;2023-07-13T15:53:53;10.50;;;5.17;;
33455;SDS011;19791;51.916;8.412;2023-07-13T15:56:32;6.10;;;4.00;;
33455;SDS011;19791;51.916;8.412;2023-07-13T15:59:00;5.67;;;5.00;;
33455;SDS011;19791;51.916;8.412;2023-07-13T16:01:26;7.10;;;4.75;;
33455;SDS011;19791;51.916;8.412;2023-07-13T16:03:52;7.28;;;5.10;;
33455;SDS011;19791;51.916;8.412;2023-07-13T16:06:26;10.40;;;5.53;;
33455;SDS011;19791;51.916;8.412;2023-07-13T16:09:00;8.95;;;4.32;;
33455;SDS011;19791;51.916;8.412;2023-07-13T16:11:29;5.85;;;4.10;;
33455;SDS011;19791;51.916;8.412;2023-07-13T16:13:58;7.22;;;4.55;;
33455;SDS011;19791;51.916;8.412;2023-07-13T16:16:28;5.38;;;3.60;;
33455;SDS011;19791;51.916;8.412;2023-07-13T16:18:56;6.43;;;4.35;;
33455;SDS011;19791;51.916;8.412;2023-07-13T16:21:24;7.43;;;3.92;;
33455;SDS011;19791;51.916;8.412;2023-07-13T16:23:55;5.38;;;4.43;;
33455;SDS011;19791;51.916;8.412;2023-07-13T16:26:26;4.40;;;3.78;;
33455;SDS011;19791;51.916;8.412;2023-07-13T16:28:52;6.13;;;3.75;;
33455;SDS011;19791;51.916;8.412;2023-07-13T16:31:26;4.45;;;3.55;;
33455;SDS011;19791;51.916;8.412;2023-07-13T16:33:56;4.40;;;3.47;;
33455;SDS011;19791;51.916;8.412;2023-07-13T16:36:24;4.63;;;3.28;;
33455;SDS011;19791;51.916;8.412;2023-07-13T16:38:50;3.30;;;3.00;;
33455;SDS011;19791;51.916;8.412;2023-07-13T16:41:15;6.55;;;2.75;;
33455;SDS011;19791;51.916;8.412;2023-07-13T16:43:41;3.28;;;2.67;;
33455;SDS011;19791;51.916;8.412;2023-07-13T16:48:44;4.35;;;2.83;;